Time;durP1;ratioP1;P1;durP2;ratioP2;P2;SDS_P1;SDS_P2;PMS_P1;PMS_P2;Temp;Humidity;BMP_temperature;BMP_pressure;BME280_temperature;BME280_humidity;BME280_pressure;Samples;Min_cycle;Max_cycle;Signal;HPM_P1;HPM_P2
2021/03/06 00:00:33;;;;;;;9.65;8.75;;;;;;;-0.66;69.18;96492.97;4990412;28;20412;-78
2021/03/06 00:02:58;;;;;;;10.77;9.68;;;;;;;-0.49;70.81;96521.34;4991201;28;20066;-78
2021/03/06 00:05:25;;;;;;;10.63;9.10;;;;;;;-0.59;71.42;96496.38;4991330;28;20041;-79
2021/03/06 00:07:52;;;;;;;9.32;8.15;;;;;;;-0.50;70.20;96524.94;4991137;28;20035;-78
2021/03/06 00:10:17;;;;;;;8.48;7.68;;;;;;;-0.48;70.11;96512.47;4991467;28;20030;-77
2021/03/06 00:12:45;;;;;;;9.93;8.25;;;;;;;-0.34;70.50;96517.50;4975800;28;20034;-78
2021/03/06 00:15:14;;;;;;;8.70;7.80;;;;;;;-0.17;69.53;96507.44;4990222;28;20039;-78
2021/03/06 00:17:39;;;;;;;9.02;8.23;;;;;;;0.08;69.04;96520.69;4993199;28;20030;-78
2021/03/06 00:20:06;;;;;;;9.13;7.35;;;;;;;0.01;68.19;96516.50;4995088;28;20046;-78
2021/03/06 00:22:32;;;;;;;9.45;8.50;;;;;;;0.24;69.18;96501.13;4995269;28;20026;-78
2021/03/06 00:24:57;;;;;;;10.75;8.63;;;;;;;0.32;69.76;96493.06;4997172;28;20064;-76
2021/03/06 00:27:23;;;;;;;9.35;8.30;;;;;;;0.40;66.34;96519.00;4995035;28;20037;-78
2021/03/06 00:29:48;;;;;;;8.30;7.50;;;;;;;0.22;67.53;96497.94;4995124;28;20069;-78
2021/03/06 00:32:14;;;;;;;8.80;7.90;;;;;;;0.20;66.99;96503.34;4994812;28;20125;-77
2021/03/06 00:34:39;;;;;;;8.68;7.88;;;;;;;0.31;66.56;96495.88;4995024;28;20049;-81
2021/03/06 00:37:04;;;;;;;9.25;8.35;;;;;;;0.23;66.27;96504.78;4996694;28;20050;-80
2021/03/06 00:39:30;;;;;;;8.18;7.43;;;;;;;-0.03;65.74;96506.44;4994661;28;20508;-78
2021/03/06 00:41:56;;;;;;;8.27;7.45;;;;;;;0.11;67.14;96507.22;4994801;28;20035;-77
2021/03/06 00:44:21;;;;;;;8.23;7.45;;;;;;;0.13;67.14;96491.31;4994817;28;20049;-77
2021/03/06 00:46:46;;;;;;;9.07;8.02;;;;;;;0.16;67.13;96509.22;4994605;28;20040;-77
2021/03/06 00:49:17;;;;;;;9.18;8.25;;;;;;;0.14;65.53;96508.59;4996424;28;20542;-77
2021/03/06 00:51:42;;;;;;;8.80;7.90;;;;;;;-0.10;65.41;96508.25;4994748;28;20066;-77
2021/03/06 00:54:08;;;;;;;8.43;7.45;;;;;;;-0.02;68.01;96487.09;4993374;28;20101;-77
2021/03/06 00:56:33;;;;;;;9.13;8.23;;;;;;;0.33;67.93;96514.81;4994415;28;20114;-77
2021/03/06 00:58:59;;;;;;;9.95;9.05;;;;;;;0.22;67.80;96503.97;4976918;28;20042;-80
2021/03/06 01:01:24;;;;;;;9.77;8.60;;;;;;;0.28;67.68;96506.78;4994549;28;20085;-77
2021/03/06 01:03:49;;;;;;;8.88;7.72;;;;;;;0.29;68.31;96503.16;4996540;28;20424;-76
2021/03/06 01:06:15;;;;;;;8.43;7.63;;;;;;;0.29;66.17;96508.38;4993749;28;20034;-77
2021/03/06 01:08:40;;;;;;;9.90;8.90;;;;;;;0.29;67.49;96503.16;4993362;28;20054;-77
2021/03/06 01:11:05;;;;;;;9.25;8.40;;;;;;;-0.05;65.99;96508.44;4994497;28;20065;-77
2021/03/06 01:13:31;;;;;;;9.02;8.05;;;;;;;0.16;67.77;96507.41;4994235;28;20034;-77
2021/03/06 01:15:56;;;;;;;9.05;7.85;;;;;;;0.07;67.04;96495.53;4996365;28;20030;-77
2021/03/06 01:18:22;;;;;;;10.35;8.32;;;;;;;-0.08;66.88;96508.03;4994206;28;20514;-78
2021/03/06 01:20:47;;;;;;;9.77;8.45;;;;;;;0.01;66.63;96511.25;4994333;28;20493;-78
2021/03/06 01:23:13;;;;;;;9.18;8.25;;;;;;;0.19;69.17;96495.72;4993821;28;20077;-77
2021/03/06 01:25:40;;;;;;;10.23;8.48;;;;;;;0.21;68.47;96491.91;4976903;28;20070;-78
2021/03/06 01:28:06;;;;;;;10.40;8.52;;;;;;;0.03;68.14;96501.38;4994372;28;20041;-78
2021/03/06 01:30:31;;;;;;;9.35;8.38;;;;;;;0.05;67.31;96486.28;4994053;28;20060;-78
2021/03/06 01:32:56;;;;;;;9.88;8.98;;;;;;;0.04;69.67;96480.25;4994086;28;20035;-78
2021/03/06 01:35:24;;;;;;;10.48;8.73;;;;;;;0.02;68.04;96487.50;4992931;28;20116;-79
2021/03/06 01:37:50;;;;;;;9.90;9.00;;;;;;;-0.12;68.10;96493.75;4993786;28;20046;-77
2021/03/06 01:40:27;;;;;;;9.95;8.85;;;;;;;0.05;70.64;96475.81;4993851;28;20156;-78
2021/03/06 01:42:52;;;;;;;11.60;9.25;;;;;;;-0.07;68.62;96484.28;4995709;28;20472;-79
2021/03/06 01:45:18;;;;;;;9.32;8.43;;;;;;;-0.01;68.96;96472.22;4993838;28;20125;-79
2021/03/06 01:47:43;;;;;;;10.65;8.40;;;;;;;0.14;69.13;96475.41;4993450;28;20134;-79
2021/03/06 01:50:09;;;;;;;9.18;8.18;;;;;;;0.31;70.66;96477.56;4993800;28;20369;-79
2021/03/06 01:52:35;;;;;;;8.95;8.15;;;;;;;0.29;68.93;96467.31;4975904;28;20038;-77
2021/03/06 01:55:01;;;;;;;10.15;8.88;;;;;;;0.32;67.88;96468.72;4995714;28;20106;-79
2021/03/06 01:57:27;;;;;;;11.70;9.25;;;;;;;0.36;68.61;96469.91;4993657;28;20479;-78
2021/03/06 01:59:52;;;;;;;9.27;8.38;;;;;;;0.35;69.81;96465.66;4993536;28;20041;-78
2021/03/06 02:02:18;;;;;;;13.02;9.20;;;;;;;0.31;68.27;96469.72;4993617;28;20133;-79
2021/03/06 02:04:44;;;;;;;12.93;9.57;;;;;;;0.27;69.01;96469.34;4993739;28;20042;-80
2021/03/06 02:07:09;;;;;;;10.52;9.43;;;;;;;0.31;69.08;96459.25;4995361;28;20095;-79
2021/03/06 02:09:34;;;;;;;10.25;9.25;;;;;;;0.31;68.68;96464.47;4992482;28;20089;-79
2021/03/06 02:12:25;;;;;;;10.20;8.75;;;;;;;0.46;71.03;96471.09;4992390;28;20038;-79
2021/03/06 02:15:06;;;;;;;10.13;9.10;;;;;;;0.33;69.03;96472.94;4992980;28;20104;-78
2021/03/06 02:18:01;;;;;;;11.23;9.25;;;;;;;0.41;69.33;96460.44;4992985;28;20121;-78
2021/03/06 02:20:51;;;;;;;11.13;9.05;;;;;;;0.32;69.71;96456.44;4993124;28;20125;-79
2021/03/06 02:23:50;;;;;;;11.43;9.35;;;;;;;0.13;68.91;96468.56;4991550;28;20496;-77
2021/03/06 02:26:27;;;;;;;10.73;8.98;;;;;;;-0.03;68.91;96459.34;4993172;28;20067;-79
2021/03/06 02:29:03;;;;;;;9.88;8.80;;;;;;;-0.03;71.12;96469.00;4992645;28;20709;-78
2021/03/06 02:31:31;;;;;;;12.63;9.60;;;;;;;-0.08;71.42;96471.44;4992634;28;20122;-78
2021/03/06 02:34:04;;;;;;;10.18;9.13;;;;;;;-0.11;71.58;96470.00;4994564;28;20026;-77
2021/03/06 02:36:32;;;;;;;14.07;9.68;;;;;;;-0.25;71.61;96457.97;4992694;28;20080;-78
2021/03/06 02:38:58;;;;;;;10.18;9.18;;;;;;;-0.31;69.99;96470.06;4991666;28;20054;-79
2021/03/06 02:41:25;;;;;;;10.75;9.65;;;;;;;-0.28;71.40;96459.19;4974455;28;20057;-79
2021/03/06 02:43:52;;;;;;;10.75;9.65;;;;;;;-0.25;72.18;96451.97;4975234;28;20089;-78
2021/03/06 02:46:21;;;;;;;12.55;10.10;;;;;;;-0.33;72.42;96456.38;4975385;28;20038;-78
2021/03/06 02:48:46;;;;;;;15.80;10.40;;;;;;;-0.49;71.64;96462.00;4976999;28;20026;-79
2021/03/06 02:51:12;;;;;;;11.85;10.65;;;;;;;-0.48;72.20;96452.38;4992152;28;20046;-77
2021/03/06 02:53:37;;;;;;;10.95;9.85;;;;;;;-0.63;71.67;96460.41;4974873;28;20049;-78
2021/03/06 02:56:02;;;;;;;12.25;10.35;;;;;;;-0.69;72.50;96456.78;4992226;28;20049;-79
2021/03/06 02:58:55;;;;;;;13.02;10.65;;;;;;;-0.60;72.91;96460.00;4974437;28;20034;-78
2021/03/06 03:01:33;;;;;;;11.00;9.32;;;;;;;-0.71;73.73;96464.03;4991866;28;20038;-78
2021/03/06 03:04:08;;;;;;;13.73;10.52;;;;;;;-0.81;73.47;96461.00;4992955;28;20026;-77
2021/03/06 03:06:36;;;;;;;12.27;10.48;;;;;;;-0.76;73.32;96457.81;4991725;28;20047;-76
2021/03/06 03:09:14;;;;;;;15.48;11.52;;;;;;;-0.92;73.70;96461.56;4991562;28;20141;-77
2021/03/06 03:11:53;;;;;;;12.02;10.65;;;;;;;-0.80;74.82;96473.06;4991691;28;20053;-76
2021/03/06 03:14:34;;;;;;;13.93;11.23;;;;;;;-0.82;75.20;96473.28;4974335;28;20050;-78
2021/03/06 03:17:27;;;;;;;13.80;11.15;;;;;;;-0.97;75.21;96466.59;4991644;28;20046;-77
2021/03/06 03:20:03;;;;;;;12.23;10.55;;;;;;;-0.77;75.68;96483.09;4991744;28;20092;-75
2021/03/06 03:22:37;;;;;;;15.45;11.05;;;;;;;-0.81;74.86;96481.91;4991281;28;20030;-77
2021/03/06 03:25:05;;;;;;;13.80;11.25;;;;;;;-1.11;75.44;96461.34;4993649;28;20436;-78
2021/03/06 03:27:34;;;;;;;12.10;10.77;;;;;;;-0.88;75.39;96475.84;4990846;28;20044;-77
2021/03/06 03:30:00;;;;;;;13.55;11.70;;;;;;;-1.10;75.00;96470.78;4991569;28;20050;-77
2021/03/06 03:32:28;;;;;;;15.98;11.55;;;;;;;-1.07;75.73;96470.41;4991448;28;20084;-77
2021/03/06 03:34:56;;;;;;;13.70;12.30;;;;;;;-1.25;75.03;96467.53;4991752;28;20038;-77
2021/03/06 03:37:22;;;;;;;18.30;12.23;;;;;;;-1.15;75.49;96465.38;4991356;28;20034;-77
2021/03/06 03:39:48;;;;;;;15.32;11.55;;;;;;;-1.27;74.89;96464.34;4992049;28;20172;-78
2021/03/06 03:42:17;;;;;;;14.50;11.55;;;;;;;-1.12;76.24;96464.97;4973793;28;20137;-77
2021/03/06 03:44:43;;;;;;;14.77;10.98;;;;;;;-1.03;74.72;96467.38;4990197;28;20046;-78
2021/03/06 03:47:08;;;;;;;15.90;12.00;;;;;;;-1.15;75.46;96457.53;4991285;28;20076;-77
2021/03/06 03:49:34;;;;;;;15.57;11.65;;;;;;;-1.17;76.06;96456.94;4991338;28;20445;-78
2021/03/06 03:52:00;;;;;;;15.15;11.90;;;;;;;-1.33;75.92;96445.06;4992763;28;20036;-75
2021/03/06 03:54:25;;;;;;;16.50;11.65;;;;;;;-1.39;76.24;96463.28;4991459;28;20049;-76
2021/03/06 03:56:51;;;;;;;15.35;12.50;;;;;;;-1.20;76.12;96472.97;4990922;28;20507;-77
2021/03/06 03:59:16;;;;;;;17.60;12.68;;;;;;;-1.28;76.70;96459.28;4990711;28;20050;-78
2021/03/06 04:01:44;;;;;;;13.30;11.75;;;;;;;-1.26;76.43;96465.94;4990274;28;20065;-77
2021/03/06 04:04:27;;;;;;;16.58;12.15;;;;;;;-1.39;77.05;96451.03;4992788;28;20034;-78
2021/03/06 04:06:53;;;;;;;21.42;12.35;;;;;;;-1.32;76.65;96470.16;4991376;28;20046;-78
2021/03/06 04:09:19;;;;;;;15.90;12.88;;;;;;;-1.50;76.93;96471.69;4990823;28;20070;-77
2021/03/06 04:11:44;;;;;;;13.32;11.65;;;;;;;-1.38;77.10;96462.31;4973338;28;20038;-77
2021/03/06 04:14:10;;;;;;;15.90;12.18;;;;;;;-1.41;76.90;96467.91;4990824;28;20438;-77
2021/03/06 04:16:35;;;;;;;17.73;12.73;;;;;;;-1.31;77.50;96476.97;4991086;28;20035;-78
2021/03/06 04:19:00;;;;;;;16.38;12.98;;;;;;;-1.36;76.87;96481.97;4992728;28;20095;-77
2021/03/06 04:21:26;;;;;;;13.77;12.23;;;;;;;-1.43;77.27;96473.31;4990825;28;20039;-78
2021/03/06 04:23:51;;;;;;;15.55;12.63;;;;;;;-1.33;76.42;96481.59;4990839;28;20034;-78
2021/03/06 04:26:16;;;;;;;22.17;13.50;;;;;;;-1.32;77.67;96485.81;4990727;28;20045;-78
2021/03/06 04:28:42;;;;;;;17.92;12.95;;;;;;;-1.75;77.51;96459.13;4989249;28;20043;-77
2021/03/06 04:31:07;;;;;;;16.25;11.77;;;;;;;-1.71;77.84;96473.41;4975125;28;20061;-77
2021/03/06 04:33:32;;;;;;;16.80;11.57;;;;;;;-1.45;77.54;96490.16;4972288;28;20046;-78
2021/03/06 04:35:58;;;;;;;17.77;13.43;;;;;;;-1.53;77.39;96485.13;4990613;28;20121;-77
2021/03/06 04:38:24;;;;;;;20.42;12.95;;;;;;;-1.61;77.29;96483.47;4990683;28;20488;-75
2021/03/06 04:40:49;;;;;;;13.50;11.15;;;;;;;-1.53;77.77;96475.50;4990792;28;20065;-78
2021/03/06 04:43:14;;;;;;;15.65;12.32;;;;;;;-1.44;79.39;96487.34;4990580;28;20030;-78
2021/03/06 04:45:40;;;;;;;16.92;13.38;;;;;;;-1.16;81.10;96502.94;4992723;28;20018;-77
2021/03/06 04:48:06;;;;;;;16.98;13.30;;;;;;;-1.34;76.95;96490.41;4990513;28;20043;-77
2021/03/06 04:50:31;;;;;;;19.45;14.32;;;;;;;-1.32;78.55;96501.47;4990477;28;20375;-78
2021/03/06 04:52:56;;;;;;;17.75;14.18;;;;;;;-1.18;79.00;96502.28;4972705;28;20068;-78
2021/03/06 04:55:21;;;;;;;19.67;13.68;;;;;;;-1.31;77.76;96494.44;4990738;28;20065;-76
2021/03/06 04:57:47;;;;;;;18.30;13.10;;;;;;;-1.33;79.13;96488.63;4974934;28;20022;-77
2021/03/06 05:00:13;;;;;;;21.85;14.35;;;;;;;-1.49;77.43;96479.31;4973397;28;20043;-78
2021/03/06 05:02:39;;;;;;;17.83;13.75;;;;;;;-1.59;78.05;96481.47;4991067;28;20042;-77
2021/03/06 05:05:08;;;;;;;18.52;13.80;;;;;;;-1.48;78.21;96506.22;4976956;28;20110;-77
2021/03/06 05:07:34;;;;;;;17.92;13.90;;;;;;;-1.52;77.88;96495.38;4994073;28;20037;-79
2021/03/06 05:09:59;;;;;;;21.48;14.23;;;;;;;-1.54;77.91;96492.13;4996104;28;20030;-78
2021/03/06 05:12:24;;;;;;;16.88;14.07;;;;;;;-1.70;78.22;96489.84;4976547;28;20038;-78
2021/03/06 05:14:50;;;;;;;20.60;14.88;;;;;;;-1.70;78.77;96488.03;4994266;28;20475;-77
2021/03/06 05:17:16;;;;;;;20.17;14.43;;;;;;;-1.66;78.46;96488.47;4976420;28;20054;-78
2021/03/06 05:19:41;;;;;;;26.67;15.52;;;;;;;-1.59;78.51;96505.78;4994073;28;20042;-79
2021/03/06 05:22:07;;;;;;;19.52;14.38;;;;;;;-1.69;78.30;96515.78;4978308;28;20049;-77
2021/03/06 05:24:32;;;;;;;21.80;15.13;;;;;;;-1.69;78.67;96509.72;4993857;28;20030;-77
2021/03/06 05:27:03;;;;;;;20.73;13.70;;;;;;;-1.79;77.80;96499.66;4992502;28;20042;-78
2021/03/06 05:29:34;;;;;;;21.67;14.83;;;;;;;-1.74;78.56;96507.72;4993731;28;20043;-77
2021/03/06 05:32:00;;;;;;;21.15;14.52;;;;;;;-1.90;77.78;96493.16;4993393;28;20274;-79
2021/03/06 05:34:26;;;;;;;19.08;13.65;;;;;;;-1.78;77.81;96506.47;4993666;28;20227;-77
2021/03/06 05:36:51;;;;;;;21.58;14.52;;;;;;;-2.02;78.07;96486.06;4995283;28;20037;-77
2021/03/06 05:39:18;;;;;;;19.05;14.05;;;;;;;-1.94;78.25;96491.97;4993731;28;20042;-77
2021/03/06 05:41:44;;;;;;;21.08;13.55;;;;;;;-1.83;77.43;96488.00;4993372;28;20039;-76
2021/03/06 05:44:11;;;;;;;16.50;12.90;;;;;;;-1.77;77.52;96508.09;4993465;28;20504;-77
2021/03/06 05:46:37;;;;;;;18.25;13.60;;;;;;;-1.91;77.16;96507.19;4975937;28;20122;-78
2021/03/06 05:49:03;;;;;;;18.98;13.63;;;;;;;-1.92;77.83;96496.97;4996529;28;20695;-76
2021/03/06 05:51:32;;;;;;;21.10;13.93;;;;;;;-1.96;76.89;96493.94;4993546;28;20046;-78
2021/03/06 05:53:58;;;;;;;16.83;12.95;;;;;;;-1.82;77.41;96505.25;4992655;28;20054;-77
2021/03/06 05:56:24;;;;;;;20.48;12.70;;;;;;;-1.82;77.90;96494.81;4996099;28;20038;-77
2021/03/06 05:58:49;;;;;;;17.08;12.85;;;;;;;-1.94;77.54;96491.16;4994798;28;20084;-78
2021/03/06 06:01:16;;;;;;;15.27;12.65;;;;;;;-1.86;76.88;96493.59;4995698;28;20030;-78
2021/03/06 06:03:42;;;;;;;16.13;12.75;;;;;;;-1.72;76.95;96500.50;4998849;28;20050;-78
2021/03/06 06:06:09;;;;;;;14.43;11.43;;;;;;;-1.81;76.60;96496.44;4995205;28;20045;-79
2021/03/06 06:08:35;;;;;;;15.75;11.43;;;;;;;-1.73;76.56;96493.66;4975197;28;20034;-78
2021/03/06 06:11:02;;;;;;;14.10;11.80;;;;;;;-1.74;76.05;96499.06;4992736;28;20045;-76
2021/03/06 06:13:27;;;;;;;13.23;11.43;;;;;;;-1.69;76.03;96507.94;4991695;28;20066;-79
2021/03/06 06:15:53;;;;;;;16.20;11.18;;;;;;;-1.67;75.85;96498.09;4994518;28;20112;-77
2021/03/06 06:18:19;;;;;;;14.68;11.23;;;;;;;-1.69;75.17;96518.38;4990778;28;20034;-75
2021/03/06 06:20:44;;;;;;;13.48;10.23;;;;;;;-1.72;74.40;96495.28;4974399;28;20039;-74
2021/03/06 06:23:12;;;;;;;13.27;10.90;;;;;;;-1.66;73.76;96496.31;4991596;28;20034;-70
2021/03/06 06:25:38;;;;;;;13.52;10.77;;;;;;;-1.61;74.29;96512.19;4993049;28;20041;-83
2021/03/06 06:28:05;;;;;;;13.88;10.13;;;;;;;-1.32;74.26;96511.09;4995223;28;20030;-82
2021/03/06 06:30:31;;;;;;;13.15;10.25;;;;;;;-1.29;73.79;96513.31;4993691;28;20100;-81
2021/03/06 06:32:57;;;;;;;12.57;10.05;;;;;;;-1.31;73.17;96520.53;4994523;28;20046;-73
2021/03/06 06:35:22;;;;;;;12.43;9.30;;;;;;;-1.27;73.37;96523.56;4974696;28;20049;-75
2021/03/06 06:38:04;;;;;;;12.13;9.35;;;;;;;-1.24;72.86;96523.16;4991711;28;20081;-76
2021/03/06 06:40:31;;;;;;;9.02;7.93;;;;;;;-1.25;72.40;96521.56;4991671;28;20038;-75
2021/03/06 06:42:58;;;;;;;10.98;8.35;;;;;;;-1.06;73.34;96531.28;4993248;28;20031;-79
2021/03/06 06:45:24;;;;;;;9.93;8.60;;;;;;;-1.14;72.29;96534.84;4992045;28;20034;-78
2021/03/06 06:47:51;;;;;;;13.60;9.27;;;;;;;-1.08;70.80;96543.72;4974516;28;20042;-79
2021/03/06 06:50:32;;;;;;;11.73;8.93;;;;;;;-1.01;70.93;96547.16;4991332;28;20204;-74
2021/03/06 06:52:57;;;;;;;10.32;8.27;;;;;;;-1.09;70.76;96537.69;4973301;28;20086;-74
2021/03/06 06:55:39;;;;;;;9.05;7.97;;;;;;;-1.10;70.74;96538.69;4973313;28;20494;-74
2021/03/06 06:58:05;;;;;;;8.68;7.88;;;;;;;-1.01;70.03;96535.91;4992620;28;20038;-75
2021/03/06 07:00:32;;;;;;;10.85;7.65;;;;;;;-1.09;69.89;96532.47;4991240;28;20027;-76
2021/03/06 07:03:03;;;;;;;10.13;7.03;;;;;;;-1.19;69.56;96542.47;4989641;28;20408;-75
2021/03/06 07:05:31;;;;;;;8.43;7.05;;;;;;;-0.78;69.36;96549.41;4991132;28;20496;-75
2021/03/06 07:07:59;;;;;;;7.53;6.78;;;;;;;-0.70;69.02;96556.28;4990794;28;20500;-75
2021/03/06 07:10:32;;;;;;;8.40;7.32;;;;;;;-0.73;69.32;96554.84;4973460;28;20023;-75
2021/03/06 07:13:00;;;;;;;10.43;7.47;;;;;;;-0.65;67.89;96543.44;4974941;28;20057;-74
2021/03/06 07:15:27;;;;;;;9.68;7.00;;;;;;;-0.54;67.24;96548.88;4991054;28;20042;-76
2021/03/06 07:17:55;;;;;;;7.25;6.32;;;;;;;-0.55;67.15;96542.03;4990237;28;20037;-74
2021/03/06 07:20:23;;;;;;;10.07;7.22;;;;;;;-0.26;67.95;96547.88;4990661;28;20034;-75
2021/03/06 07:22:50;;;;;;;8.50;7.38;;;;;;;-0.27;66.67;96551.50;4990542;28;20062;-74
2021/03/06 07:25:16;;;;;;;10.35;6.78;;;;;;;-0.22;67.16;96546.47;4973167;28;20117;-75
2021/03/06 07:27:41;;;;;;;9.20;6.50;;;;;;;-0.11;67.54;96537.22;4990942;28;20150;-77
2021/03/06 07:30:08;;;;;;;10.52;6.20;;;;;;;-0.13;65.38;96540.03;4990641;28;20388;-74
2021/03/06 07:32:37;;;;;;;9.10;6.80;;;;;;;0.12;67.08;96550.69;4990389;28;20097;-76
2021/03/06 07:35:05;;;;;;;9.13;7.07;;;;;;;0.27;67.08;96550.47;4989410;28;20535;-75
2021/03/06 07:37:31;;;;;;;6.63;6.03;;;;;;;0.32;65.28;96549.84;4989175;28;20060;-73
2021/03/06 07:39:59;;;;;;;9.15;6.50;;;;;;;0.25;64.21;96552.47;4991630;28;20033;-76
2021/03/06 07:42:39;;;;;;;7.72;6.18;;;;;;;0.47;65.16;96551.22;4990226;28;20050;-81
2021/03/06 07:45:05;;;;;;;7.82;6.15;;;;;;;0.30;63.68;96518.63;4991177;28;20409;-75
2021/03/06 07:47:36;;;;;;;7.05;6.43;;;;;;;0.45;63.55;96541.97;4989689;28;20136;-67
2021/03/06 07:50:03;;;;;;;6.00;5.25;;;;;;;0.28;62.49;96536.38;4989928;28;20070;-70
2021/03/06 07:52:31;;;;;;;7.38;5.82;;;;;;;0.58;63.04;96541.94;4989303;28;20034;-69
2021/03/06 07:54:57;;;;;;;6.32;5.70;;;;;;;0.52;61.68;96548.00;4990542;28;20065;-74
2021/03/06 07:57:22;;;;;;;7.80;5.88;;;;;;;0.57;61.64;96550.81;4989449;28;20046;-79
2021/03/06 07:59:53;;;;;;;8.43;6.07;;;;;;;0.62;61.23;96555.41;4989814;28;20034;-73
2021/03/06 08:02:36;;;;;;;7.40;5.20;;;;;;;0.76;61.17;96560.38;4989687;28;20082;-74
2021/03/06 08:05:02;;;;;;;5.20;4.57;;;;;;;0.39;59.38;96555.88;4989927;28;20045;-76
2021/03/06 08:07:44;;;;;;;6.82;5.28;;;;;;;0.68;59.27;96550.16;4989647;28;20027;-76
2021/03/06 08:10:11;;;;;;;8.40;5.10;;;;;;;0.60;58.32;96546.94;4991993;28;20423;-72
2021/03/06 08:12:38;;;;;;;5.90;5.05;;;;;;;0.50;58.08;96547.38;4988885;28;20046;-72
2021/03/06 08:15:27;;;;;;;7.55;5.82;;;;;;;0.56;57.82;96569.31;4971772;28;20031;-70
2021/03/06 08:17:53;;;;;;;7.28;4.68;;;;;;;0.96;59.01;96557.69;4971652;28;20038;-68
2021/03/06 08:20:28;;;;;;;7.50;5.28;;;;;;;0.94;58.08;96559.72;4971210;28;20701;-73
2021/03/06 08:23:19;;;;;;;8.63;5.00;;;;;;;1.25;58.06;96566.03;4989251;28;20027;-72
2021/03/06 08:25:47;;;;;;;5.40;4.60;;;;;;;1.12;57.76;96558.22;4989990;28;20173;-73
2021/03/06 08:28:26;;;;;;;6.68;4.63;;;;;;;1.24;55.92;96572.28;4991898;28;20026;-73
2021/03/06 08:30:51;;;;;;;5.63;4.50;;;;;;;1.28;56.32;96563.00;4989442;28;20184;-72
2021/03/06 08:33:18;;;;;;;5.75;4.82;;;;;;;1.18;55.60;96554.78;4972386;28;20129;-71
2021/03/06 08:35:43;;;;;;;6.82;4.93;;;;;;;1.22;54.40;96554.13;4989479;28;20050;-71
2021/03/06 08:38:31;;;;;;;6.50;4.63;;;;;;;1.55;54.86;96564.44;4991408;28;20030;-76
2021/03/06 08:40:58;;;;;;;5.00;4.50;;;;;;;1.63;54.79;96547.63;4994186;28;20055;-75
2021/03/06 08:43:24;;;;;;;6.00;5.03;;;;;;;1.35;54.77;96558.50;4992122;28;20547;-71
2021/03/06 08:45:50;;;;;;;5.80;4.82;;;;;;;1.38;54.05;96544.16;4996602;28;20065;-71
2021/03/06 08:48:16;;;;;;;6.95;4.47;;;;;;;1.41;54.22;96549.81;4993987;28;20062;-74
2021/03/06 08:50:43;;;;;;;5.13;4.68;;;;;;;1.37;54.65;96506.66;4993866;28;20043;-70
2021/03/06 08:53:13;;;;;;;6.15;5.20;;;;;;;0.94;54.30;96494.22;4991878;28;20081;-79
2021/03/06 08:55:41;;;;;;;6.78;4.68;;;;;;;1.26;55.25;96546.66;4976786;28;20050;-76
2021/03/06 08:58:21;;;;;;;7.07;5.47;;;;;;;1.36;54.68;96541.75;4995839;28;20031;-73
2021/03/06 09:00:49;;;;;;;5.30;4.80;;;;;;;1.55;55.54;96540.03;4994069;28;20616;-73
2021/03/06 09:03:18;;;;;;;6.85;5.38;;;;;;;1.77;54.54;96550.97;4993563;28;20436;-72
2021/03/06 09:05:55;;;;;;;6.72;5.65;;;;;;;1.77;54.39;96522.13;4993703;28;20030;-73
2021/03/06 09:08:21;;;;;;;5.82;5.32;;;;;;;2.20;54.67;96561.53;4975877;28;20053;-74
2021/03/06 09:10:49;;;;;;;5.70;5.10;;;;;;;2.24;54.16;96565.31;4993786;28;20136;-74
2021/03/06 09:13:19;;;;;;;7.80;5.05;;;;;;;1.93;53.59;96553.06;4993377;28;20033;-73
2021/03/06 09:15:53;;;;;;;5.30;4.80;;;;;;;2.15;53.15;96550.88;4994375;28;20074;-74
2021/03/06 09:18:24;;;;;;;7.07;5.00;;;;;;;2.39;55.12;96559.72;4993383;28;20050;-74
2021/03/06 09:20:51;;;;;;;8.88;5.90;;;;;;;2.42;53.50;96567.19;4992999;28;20035;-74
2021/03/06 09:23:27;;;;;;;6.15;5.55;;;;;;;2.29;53.66;96515.56;4992851;28;20085;-74
2021/03/06 09:25:52;;;;;;;5.43;4.88;;;;;;;2.53;52.61;96558.56;4993158;28;20101;-75
2021/03/06 09:28:27;;;;;;;7.70;5.15;;;;;;;2.44;53.10;96540.69;4992859;28;20038;-77
2021/03/06 09:30:53;;;;;;;6.43;5.03;;;;;;;2.37;53.56;96535.50;4977909;28;20096;-75
2021/03/06 09:33:36;;;;;;;6.70;5.55;;;;;;;2.42;53.29;96517.28;4975868;28;20034;-75
2021/03/06 09:36:12;;;;;;;;;;;;;;;2.51;52.60;96549.31;4993828;28;20041;-76
2021/03/06 09:38:58;;;;;;;6.40;5.25;;;;;;;2.65;52.61;96542.06;4993040;28;19972;-75
2021/03/06 09:41:27;;;;;;;6.70;5.18;;;;;;;2.59;51.67;96547.19;4992643;28;20039;-75
2021/03/06 09:43:59;;;;;;;6.75;5.10;;;;;;;2.57;52.05;96548.44;4975497;28;20085;-76
2021/03/06 09:46:27;;;;;;;8.50;5.50;;;;;;;2.78;52.17;96550.63;4993095;28;20030;-73
2021/03/06 09:49:14;;;;;;;6.72;5.32;;;;;;;2.95;52.60;96548.19;4976723;28;20026;-79
2021/03/06 09:51:45;;;;;;;5.40;4.90;;;;;;;2.93;53.60;96534.47;4975879;28;20149;-72
2021/03/06 09:54:12;;;;;;;8.13;5.70;;;;;;;3.05;51.32;96558.97;4975683;28;20492;-75
2021/03/06 09:56:53;;;;;;;6.00;5.32;;;;;;;2.83;50.86;96542.09;4992764;28;20262;-74
2021/03/06 09:59:20;;;;;;;5.63;5.07;;;;;;;3.07;52.07;96549.06;4975520;28;20046;-74
2021/03/06 10:01:45;;;;;;;6.57;5.40;;;;;;;2.78;51.83;96542.75;4992427;28;20030;-75
2021/03/06 10:04:13;;;;;;;6.00;5.32;;;;;;;3.19;50.65;96541.22;4995162;28;20030;-77
2021/03/06 10:06:44;;;;;;;7.57;5.72;;;;;;;2.96;50.83;96541.09;4976112;28;20035;-83
2021/03/06 10:09:12;;;;;;;6.80;5.57;;;;;;;3.06;49.84;96552.69;4975410;28;20560;-76
2021/03/06 10:11:39;;;;;;;8.23;5.40;;;;;;;3.08;50.71;96534.09;4992505;28;20034;-78
2021/03/06 10:14:06;;;;;;;9.30;6.32;;;;;;;3.17;51.54;96542.47;4993417;28;20047;-79
2021/03/06 10:16:51;;;;;;;7.72;5.32;;;;;;;3.25;50.55;96553.47;4991775;28;20030;-72
2021/03/06 10:19:18;;;;;;;5.95;5.35;;;;;;;3.33;50.70;96553.19;4993024;28;20037;-77
2021/03/06 10:22:13;;;;;;;8.25;5.75;;;;;;;3.56;51.72;96536.66;4993850;28;20053;-72
2021/03/06 10:24:58;;;;;;;6.50;5.75;;;;;;;3.70;51.13;96549.63;4983445;28;20049;-70
2021/03/06 10:27:35;;;;;;;7.00;6.28;;;;;;;3.66;50.31;96541.38;4991662;28;20034;-70
2021/03/06 10:30:16;;;;;;;6.43;5.90;;;;;;;3.55;50.90;96498.22;4992402;28;20074;-78
2021/03/06 10:32:46;;;;;;;7.00;6.00;;;;;;;3.97;50.16;96540.28;4989502;28;20054;-75
2021/03/06 10:35:37;;;;;;;6.63;4.90;;;;;;;3.67;50.33;96547.44;4970969;28;20591;-75
2021/03/06 10:38:25;;;;;;;7.05;5.53;;;;;;;3.93;50.42;96539.13;4991742;28;20133;-75
2021/03/06 10:40:56;;;;;;;6.75;6.13;;;;;;;3.69;49.92;96540.94;4986426;28;20100;-76
2021/03/06 10:43:28;;;;;;;7.03;5.70;;;;;;;3.17;50.89;96542.47;4992178;28;20465;-78
2021/03/06 10:45:55;;;;;;;6.63;6.00;;;;;;;3.47;51.10;96545.88;4976339;28;20093;-74
2021/03/06 10:48:29;;;;;;;6.72;6.05;;;;;;;3.32;50.84;96521.81;4991333;28;20084;-76
2021/03/06 10:50:56;;;;;;;8.32;5.50;;;;;;;3.33;51.10;96533.97;4974743;28;20089;-75
2021/03/06 10:53:23;;;;;;;6.95;5.50;;;;;;;3.38;51.02;96536.72;4974431;28;20515;-74
2021/03/06 10:55:50;;;;;;;6.95;5.90;;;;;;;3.61;50.72;96526.25;4992334;28;20070;-76
2021/03/06 10:58:17;;;;;;;6.78;6.18;;;;;;;3.65;50.84;96540.56;4991282;28;20081;-75
2021/03/06 11:00:44;;;;;;;6.82;6.22;;;;;;;3.75;48.99;96534.75;4993137;28;20361;-78
2021/03/06 11:03:11;;;;;;;7.43;5.82;;;;;;;3.36;49.87;96488.78;4974231;28;20516;-74
2021/03/06 11:05:38;;;;;;;5.97;5.45;;;;;;;3.74;49.56;96535.78;4974189;28;20084;-76
2021/03/06 11:08:18;;;;;;;6.43;5.82;;;;;;;3.69;49.83;96534.88;4991109;28;20485;-77
2021/03/06 11:10:46;;;;;;;6.45;5.85;;;;;;;3.51;50.66;96533.91;4991111;28;20050;-77
2021/03/06 11:13:12;;;;;;;8.18;5.78;;;;;;;3.69;51.19;96522.50;4993389;28;20034;-73
2021/03/06 11:15:49;;;;;;;6.75;5.15;;;;;;;3.85;48.86;96523.69;4989492;28;20389;-78
2021/03/06 11:18:15;;;;;;;5.63;5.10;;;;;;;3.63;49.80;96500.53;4992181;28;20088;-77
2021/03/06 11:20:48;;;;;;;5.80;5.30;;;;;;;4.20;49.84;96500.00;4990743;28;20625;-74
2021/03/06 11:23:15;;;;;;;9.95;5.85;;;;;;;4.13;48.97;96521.16;4990835;28;20081;-75
2021/03/06 11:25:46;;;;;;;6.70;6.03;;;;;;;4.40;49.01;96512.78;4991122;28;20045;-78
2021/03/06 11:28:15;;;;;;;6.73;6.07;;;;;;;4.22;49.57;96523.47;4991257;28;20070;-75
2021/03/06 11:30:45;;;;;;;6.10;5.50;;;;;;;4.04;49.04;96475.13;4991671;28;20042;-77
2021/03/06 11:33:14;;;;;;;6.32;5.82;;;;;;;4.23;48.52;96515.31;4991082;28;20100;-77
2021/03/06 11:35:40;;;;;;;6.18;5.63;;;;;;;4.55;49.03;96501.78;4991418;28;20074;-77
2021/03/06 11:38:10;;;;;;;6.38;5.78;;;;;;;4.18;49.21;96486.25;4991085;28;20057;-80
2021/03/06 11:40:38;;;;;;;6.00;5.40;;;;;;;4.21;49.54;96501.59;4973339;28;20038;-75